Time;durP1;ratioP1;P1;durP2;ratioP2;P2;SDS_P1;SDS_P2;PMS_P1;PMS_P2;Temp;Humidity;BMP_temperature;BMP_pressure;BME280_temperature;BME280_humidity;BME280_pressure;Samples;Min_cycle;Max_cycle;Signal;HPM_P1;HPM_P2
2022/04/04 00:02:14;;;;;;;12.65;7.40;;;4.40;93.60;;;;;;5055294;28;20031;-64
2022/04/04 00:04:40;;;;;;;9.48;7.43;;;4.30;93.50;;;;;;5073957;28;20031;-63
2022/04/04 00:07:06;;;;;;;9.32;8.02;;;4.30;93.40;;;;;;5056075;28;20046;-64
2022/04/04 00:09:32;;;;;;;10.05;7.43;;;4.10;94.00;;;;;;5072690;28;20039;-65
2022/04/04 00:11:58;;;;;;;9.95;7.68;;;4.10;94.30;;;;;;5073022;28;20033;-63
2022/04/04 00:14:23;;;;;;;10.80;7.50;;;4.00;94.50;;;;;;5072245;28;20371;-65
2022/04/04 00:16:50;;;;;;;17.08;8.43;;;3.70;94.90;;;;;;5073344;28;20066;-63
2022/04/04 00:19:15;;;;;;;7.60;6.80;;;3.60;95.30;;;;;;5054473;28;20031;-64
2022/04/04 00:21:41;;;;;;;9.88;7.68;;;3.70;95.40;;;;;;5055228;28;20028;-62
2022/04/04 00:24:08;;;;;;;8.65;7.43;;;3.50;96.00;;;;;;5072769;28;20035;-64
2022/04/04 00:26:34;;;;;;;9.50;8.50;;;3.60;95.80;;;;;;5076171;28;20109;-63
2022/04/04 00:29:00;;;;;;;10.95;8.05;;;3.50;95.90;;;;;;5059185;28;20036;-64
2022/04/04 00:31:26;;;;;;;9.90;8.02;;;3.50;96.00;;;;;;5078329;28;20029;-69
2022/04/04 00:33:52;;;;;;;11.40;7.70;;;3.10;97.00;;;;;;5060391;28;20478;-64
2022/04/04 00:36:17;;;;;;;9.20;7.60;;;3.30;96.90;;;;;;5058765;28;20042;-65
2022/04/04 00:38:43;;;;;;;9.57;8.18;;;3.20;97.50;;;;;;5076864;28;20123;-63
2022/04/04 00:41:10;;;;;;;10.73;8.95;;;3.10;97.40;;;;;;5077075;28;20031;-63
2022/04/04 00:43:37;;;;;;;10.50;8.68;;;3.30;97.50;;;;;;5076334;28;20054;-65
2022/04/04 00:46:03;;;;;;;9.82;8.00;;;3.20;97.70;;;;;;5097454;28;20101;-67
2022/04/04 00:48:29;;;;;;;8.68;7.78;;;3.20;97.50;;;;;;5096711;28;20028;-64
2022/04/04 00:50:55;;;;;;;13.63;8.50;;;3.30;97.60;;;;;;5096699;28;20104;-63
2022/04/04 00:53:22;;;;;;;10.07;8.70;;;3.30;97.40;;;;;;5094645;28;20050;-65
2022/04/04 00:55:48;;;;;;;10.55;8.45;;;3.30;97.70;;;;;;5097436;28;20032;-64
2022/04/04 00:58:16;;;;;;;11.93;8.52;;;3.30;97.70;;;;;;5095439;28;20032;-66
2022/04/04 01:00:45;;;;;;;11.38;9.00;;;3.30;97.70;;;;;;5096875;28;20488;-62
2022/04/04 01:03:11;;;;;;;13.45;9.07;;;3.20;98.10;;;;;;5096360;28;20438;-66
2022/04/04 01:05:36;;;;;;;11.23;9.93;;;3.00;98.10;;;;;;5096317;28;20113;-62
2022/04/04 01:08:02;;;;;;;12.25;7.85;;;2.90;98.70;;;;;;5096776;28;20126;-64
2022/04/04 01:10:29;;;;;;;11.77;8.15;;;2.90;98.70;;;;;;5096368;28;20028;-63
2022/04/04 01:12:55;;;;;;;12.50;8.07;;;2.70;98.70;;;;;;5097197;28;20447;-69
2022/04/04 01:15:23;;;;;;;9.85;7.78;;;2.60;98.90;;;;;;5098723;28;20036;-67
2022/04/04 01:17:50;;;;;;;12.57;8.15;;;2.60;99.30;;;;;;5099639;28;20361;-63
2022/04/04 01:20:16;;;;;;;12.00;7.68;;;2.80;98.80;;;;;;5097894;28;20024;-67
2022/04/04 01:22:47;;;;;;;11.20;7.40;;;2.60;99.10;;;;;;5097340;28;20557;-64
2022/04/04 01:25:13;;;;;;;9.03;7.87;;;2.70;99.00;;;;;;5098253;28;20046;-62
2022/04/04 01:27:39;;;;;;;10.93;8.25;;;2.70;99.00;;;;;;5098353;28;20032;-63
2022/04/04 01:30:07;;;;;;;11.95;8.02;;;2.80;98.70;;;;;;5095672;28;20035;-62
2022/04/04 01:32:34;;;;;;;10.27;7.93;;;2.90;98.70;;;;;;5095784;28;20020;-62
2022/04/04 01:35:00;;;;;;;10.25;7.88;;;2.90;98.50;;;;;;5096238;28;20121;-62
2022/04/04 01:37:26;;;;;;;11.55;7.90;;;2.90;98.70;;;;;;5094254;28;20036;-63
2022/04/04 01:39:52;;;;;;;11.40;8.68;;;2.90;99.00;;;;;;5095593;28;20032;-62
2022/04/04 01:42:18;;;;;;;12.57;8.60;;;2.90;98.90;;;;;;5095870;28;20028;-65
2022/04/04 01:44:43;;;;;;;10.10;7.85;;;2.90;98.70;;;;;;5075858;28;20075;-62
2022/04/04 01:47:10;;;;;;;9.82;7.88;;;3.10;98.40;;;;;;5075413;28;20029;-65
2022/04/04 01:49:35;;;;;;;9.07;8.05;;;3.20;98.00;;;;;;5057854;28;20416;-62
2022/04/04 01:52:01;;;;;;;9.38;8.23;;;3.30;97.70;;;;;;5059006;28;20056;-66
2022/04/04 01:54:27;;;;;;;11.45;8.13;;;3.40;97.50;;;;;;5076757;28;20031;-65
2022/04/04 01:56:52;;;;;;;10.82;7.85;;;3.30;97.60;;;;;;5057616;28;20484;-64
2022/04/04 01:59:20;;;;;;;12.55;8.90;;;3.30;97.30;;;;;;5074601;28;20027;-63
2022/04/04 02:01:45;;;;;;;12.73;9.27;;;3.30;97.60;;;;;;5075251;28;20024;-64
2022/04/04 02:04:11;;;;;;;10.43;8.55;;;3.30;97.50;;;;;;5075834;28;20519;-67
2022/04/04 02:06:37;;;;;;;11.77;9.13;;;3.20;97.60;;;;;;5057623;28;20028;-65
2022/04/04 02:09:03;;;;;;;14.55;8.75;;;3.20;97.90;;;;;;5057833;28;20028;-64
2022/04/04 02:11:29;;;;;;;12.35;8.82;;;3.20;98.00;;;;;;5057393;28;20085;-63
2022/04/04 02:13:56;;;;;;;11.43;9.02;;;3.20;97.90;;;;;;5058632;28;20086;-67
2022/04/04 02:16:21;;;;;;;12.52;9.30;;;3.20;97.90;;;;;;5077382;28;20032;-69
2022/04/04 02:18:47;;;;;;;11.52;9.35;;;3.10;98.10;;;;;;5077866;28;20462;-63
2022/04/04 02:21:13;;;;;;;12.63;8.98;;;3.10;98.20;;;;;;5076784;28;20458;-62
2022/04/04 02:23:38;;;;;;;12.25;9.38;;;3.10;98.40;;;;;;5075873;28;20024;-62
2022/04/04 02:26:04;;;;;;;15.02;9.23;;;2.90;98.80;;;;;;5058301;28;20473;-64
2022/04/04 02:28:30;;;;;;;13.43;9.25;;;2.90;99.20;;;;;;5074863;28;20024;-63
2022/04/04 02:30:57;;;;;;;10.30;8.27;;;2.80;99.60;;;;;;5075625;28;20074;-63
2022/04/04 02:33:24;;;;;;;13.10;9.20;;;2.80;99.70;;;;;;5074338;28;20021;-63
2022/04/04 02:35:50;;;;;;;13.15;9.82;;;2.60;99.90;;;;;;5057485;28;20056;-62
2022/04/04 02:38:18;;;;;;;13.07;9.20;;;2.70;99.90;;;;;;5075274;28;20435;-62
2022/04/04 02:40:44;;;;;;;10.95;8.73;;;2.50;99.90;;;;;;5074687;28;20063;-63
2022/04/04 02:43:09;;;;;;;10.43;7.90;;;2.40;99.90;;;;;;5074768;28;20052;-66
2022/04/04 02:45:36;;;;;;;12.48;9.90;;;2.40;99.90;;;;;;5074305;28;20028;-66
2022/04/04 02:48:02;;;;;;;11.55;8.38;;;2.40;99.90;;;;;;5056230;28;20037;-62
2022/04/04 02:50:28;;;;;;;13.38;9.68;;;2.40;99.90;;;;;;5074075;28;20023;-62
2022/04/04 02:52:53;;;;;;;10.30;8.85;;;2.50;99.90;;;;;;5074401;28;20542;-67
2022/04/04 02:58:11;;;;;;;11.40;8.82;;;2.50;99.90;;;;;;5058578;28;20036;-63
2022/04/04 03:00:37;;;;;;;12.07;8.73;;;2.20;99.90;;;;;;5074378;28;20476;-64
2022/04/04 03:03:03;;;;;;;14.65;10.35;;;2.30;99.90;;;;;;5056705;28;20048;-63
2022/04/04 03:05:29;;;;;;;13.27;8.95;;;2.10;99.90;;;;;;5073399;28;20056;-62
2022/04/04 03:07:54;;;;;;;13.25;9.43;;;2.30;99.90;;;;;;5073966;28;20470;-64
2022/04/04 03:10:20;;;;;;;13.68;10.07;;;2.10;99.90;;;;;;5074442;28;20445;-71
2022/04/04 03:12:49;;;;;;;12.80;8.38;;;2.20;99.90;;;;;;5076294;28;20111;-65
2022/04/04 03:15:19;;;;;;;18.40;10.52;;;2.20;99.90;;;;;;5057692;28;20033;-63
2022/04/04 03:17:49;;;;;;;13.77;10.10;;;2.20;99.90;;;;;;5056044;28;20031;-63
2022/04/04 03:20:16;;;;;;;13.52;9.85;;;2.00;99.90;;;;;;5056392;28;20025;-62
2022/04/04 03:22:44;;;;;;;13.73;9.40;;;2.10;99.90;;;;;;5073921;28;20074;-62
2022/04/04 03:25:11;;;;;;;14.38;10.95;;;2.10;99.90;;;;;;5075291;28;20032;-63
2022/04/04 03:27:41;;;;;;;11.18;8.63;;;2.00;99.90;;;;;;5073577;28;20058;-63
2022/04/04 03:30:25;;;;;;;14.68;9.73;;;2.00;99.90;;;;;;5056065;28;20025;-64
2022/04/04 03:32:57;;;;;;;15.85;9.93;;;2.00;99.90;;;;;;5042869;28;20021;-65
2022/04/04 03:35:23;;;;;;;;;;;2.10;99.90;;;;;;5053813;28;20071;-62
2022/04/04 03:37:51;;;;;;;13.43;10.35;;;2.20;99.90;;;;;;5054148;28;19911;-63
2022/04/04 03:40:19;;;;;;;14.88;10.80;;;2.10;99.90;;;;;;5053528;28;20052;-63
2022/04/04 03:42:46;;;;;;;15.32;10.60;;;2.20;99.90;;;;;;5034608;28;20056;-64
2022/04/04 03:45:14;;;;;;;15.35;9.93;;;2.20;99.90;;;;;;5053163;28;20025;-63
2022/04/04 03:47:42;;;;;;;12.45;10.30;;;2.10;99.90;;;;;;5053673;28;20037;-62
2022/04/04 03:50:10;;;;;;;14.43;11.35;;;2.10;99.90;;;;;;5053775;28;20378;-63
2022/04/04 03:52:35;;;;;;;13.85;10.20;;;2.10;99.90;;;;;;5053201;28;20021;-64
2022/04/04 03:55:02;;;;;;;15.57;10.00;;;2.10;99.90;;;;;;5053153;28;20051;-64
2022/04/04 03:57:28;;;;;;;12.60;10.55;;;2.20;99.90;;;;;;5052894;28;20390;-68
2022/04/04 03:59:54;;;;;;;13.15;10.40;;;2.20;99.90;;;;;;5052234;28;20108;-63
2022/04/04 04:02:20;;;;;;;12.43;10.05;;;2.10;99.90;;;;;;5053700;28;20032;-65
2022/04/04 04:04:45;;;;;;;14.98;11.38;;;2.10;99.90;;;;;;5052492;28;20107;-63
2022/04/04 04:07:15;;;;;;;15.05;11.43;;;2.20;99.90;;;;;;5053184;28;20485;-63
2022/04/04 04:09:44;;;;;;;20.48;10.95;;;2.20;99.90;;;;;;5052353;28;20021;-61
2022/04/04 04:12:11;;;;;;;17.00;11.23;;;2.20;99.90;;;;;;5053373;28;20063;-64
2022/04/04 04:14:38;;;;;;;18.33;11.60;;;2.30;99.90;;;;;;5052912;28;20494;-63
2022/04/04 04:17:04;;;;;;;15.05;11.18;;;2.20;99.90;;;;;;5053177;28;20062;-63
2022/04/04 04:22:15;;;;;;;15.02;11.35;;;2.30;99.90;;;;;;5053778;28;20532;-62
2022/04/04 04:24:41;;;;;;;13.93;11.10;;;2.40;99.90;;;;;;5054973;28;20033;-70
2022/04/04 04:27:07;;;;;;;14.10;10.82;;;2.40;99.90;;;;;;5055277;28;20032;-62
2022/04/04 04:29:33;;;;;;;14.45;10.20;;;2.30;99.90;;;;;;5054833;28;20520;-77
2022/04/04 04:31:59;;;;;;;19.00;10.07;;;2.30;99.90;;;;;;5054991;28;20021;-64
2022/04/04 04:34:25;;;;;;;18.40;10.93;;;2.20;99.90;;;;;;5053633;28;20158;-66
2022/04/04 04:36:51;;;;;;;13.57;10.02;;;2.10;99.90;;;;;;5036123;28;20167;-63
2022/04/04 04:39:17;;;;;;;15.35;10.77;;;2.10;99.90;;;;;;5053077;28;20111;-64
2022/04/04 04:41:45;;;;;;;14.95;10.38;;;2.30;99.90;;;;;;5052690;28;20037;-62
2022/04/04 04:44:12;;;;;;;12.65;10.82;;;2.30;99.90;;;;;;5053056;28;20139;-66
2022/04/04 04:46:38;;;;;;;13.50;10.85;;;2.20;99.90;;;;;;5052078;28;20097;-64
2022/04/04 04:49:04;;;;;;;15.27;11.32;;;2.20;99.90;;;;;;5053088;28;20088;-64
2022/04/04 04:51:30;;;;;;;29.55;11.07;;;2.10;99.90;;;;;;5052875;28;20025;-64
2022/04/04 04:53:56;;;;;;;15.63;10.32;;;2.10;99.90;;;;;;5053564;28;20036;-64
2022/04/04 04:56:21;;;;;;;13.70;10.60;;;1.90;99.90;;;;;;5036706;28;20029;-63
2022/04/04 04:58:47;;;;;;;14.98;11.27;;;1.90;99.90;;;;;;5035622;28;20032;-65
2022/04/04 05:01:13;;;;;;;16.50;11.88;;;2.00;99.90;;;;;;5036948;28;20033;-66
2022/04/04 05:03:39;;;;;;;17.67;11.43;;;1.90;99.90;;;;;;5053699;28;20074;-64
2022/04/04 05:06:07;;;;;;;14.50;9.63;;;1.90;99.90;;;;;;5053600;28;20036;-65
2022/04/04 05:08:32;;;;;;;13.80;10.60;;;2.00;99.90;;;;;;5054701;28;20040;-65
2022/04/04 05:10:59;;;;;;;14.80;11.27;;;1.90;99.90;;;;;;5038329;28;20393;-64
2022/04/04 05:13:26;;;;;;;16.10;10.75;;;2.00;99.90;;;;;;5059568;28;20028;-67
2022/04/04 05:15:54;;;;;;;14.23;11.10;;;1.80;99.90;;;;;;5058530;28;20127;-62
2022/04/04 05:18:21;;;;;;;19.85;11.07;;;1.90;99.90;;;;;;5039428;28;20064;-64
2022/04/04 05:20:46;;;;;;;16.92;10.55;;;1.90;99.90;;;;;;5058376;28;20461;-63
2022/04/04 05:23:13;;;;;;;15.00;10.70;;;1.90;99.90;;;;;;5040624;28;20060;-65
2022/04/04 05:25:40;;;;;;;15.30;10.43;;;1.90;99.90;;;;;;5066239;28;20036;-65
2022/04/04 05:28:07;;;;;;;13.38;10.10;;;1.90;99.90;;;;;;5075580;28;20052;-63
2022/04/04 05:30:34;;;;;;;14.80;10.95;;;2.10;99.90;;;;;;5070854;28;20041;-64
2022/04/04 05:33:00;;;;;;;15.25;10.43;;;2.10;99.90;;;;;;5070139;28;20046;-62
2022/04/04 05:35:26;;;;;;;12.45;10.05;;;2.10;99.90;;;;;;5045622;28;20029;-63
2022/04/04 05:37:55;;;;;;;14.15;9.82;;;2.00;99.90;;;;;;5055935;28;20097;-64
2022/04/04 05:40:22;;;;;;;19.63;10.45;;;2.10;99.90;;;;;;5067027;28;20122;-63
2022/04/04 05:42:49;;;;;;;17.75;11.07;;;2.00;99.90;;;;;;5041372;28;20400;-64
2022/04/04 05:45:15;;;;;;;15.18;9.88;;;2.00;99.90;;;;;;5075054;28;20079;-67
2022/04/04 05:47:41;;;;;;;17.85;9.43;;;2.00;99.90;;;;;;5076135;28;20040;-62
2022/04/04 05:50:07;;;;;;;19.05;10.18;;;2.00;99.90;;;;;;5093595;28;20083;-68
2022/04/04 05:52:37;;;;;;;11.75;9.43;;;2.10;99.90;;;;;;5097763;28;20076;-66
2022/04/04 05:55:04;;;;;;;16.88;10.35;;;2.00;99.90;;;;;;5095261;28;20032;-64
2022/04/04 05:57:38;;;;;;;17.52;10.20;;;2.00;99.90;;;;;;5088136;28;20034;-68
2022/04/04 06:00:10;;;;;;;15.90;10.27;;;2.00;99.90;;;;;;5096423;28;20377;-63
2022/04/04 06:02:37;;;;;;;17.92;10.20;;;1.90;99.90;;;;;;5090326;28;20032;-64
2022/04/04 06:05:05;;;;;;;23.08;10.75;;;1.90;99.90;;;;;;5094044;28;20067;-68
2022/04/04 06:07:31;;;;;;;13.25;9.10;;;1.90;99.90;;;;;;5095817;28;20064;-67
2022/04/04 06:09:56;;;;;;;14.95;10.23;;;2.10;99.90;;;;;;5097253;28;20051;-65
2022/04/04 06:12:22;;;;;;;14.52;9.15;;;4.00;99.90;;;;;;5082950;28;20359;-64
2022/04/04 06:14:48;;;;;;;14.02;9.57;;;4.40;99.90;;;;;;5092404;28;20035;-65
2022/04/04 06:17:13;;;;;;;10.20;8.93;;;3.80;99.90;;;;;;5094756;28;20028;-62
2022/04/04 06:19:39;;;;;;;13.32;9.85;;;3.10;99.90;;;;;;5095164;28;20024;-63
2022/04/04 06:22:05;;;;;;;14.82;9.75;;;2.80;99.90;;;;;;5094828;28;20031;-62
2022/04/04 06:24:31;;;;;;;15.10;10.23;;;2.70;99.90;;;;;;5095401;28;20035;-72
2022/04/04 06:26:58;;;;;;;14.05;9.20;;;2.80;99.90;;;;;;5094546;28;20483;-63
2022/04/04 06:29:24;;;;;;;13.18;10.65;;;2.70;99.90;;;;;;5091475;28;20113;-64
2022/04/04 06:31:51;;;;;;;13.30;9.45;;;2.70;99.90;;;;;;5094625;28;20078;-64
2022/04/04 06:34:17;;;;;;;12.48;9.52;;;2.70;99.90;;;;;;5096661;28;20077;-64
2022/04/04 06:36:44;;;;;;;16.58;10.10;;;2.70;99.90;;;;;;5094097;28;20062;-68
2022/04/04 06:39:10;;;;;;;16.23;10.15;;;2.50;99.90;;;;;;5080074;28;20021;-64
2022/04/04 06:41:36;;;;;;;14.55;10.43;;;2.60;99.90;;;;;;5086536;28;20074;-68
2022/04/04 06:44:03;;;;;;;11.80;9.27;;;2.40;99.90;;;;;;5081304;28;20486;-64
2022/04/04 06:46:29;;;;;;;19.20;10.23;;;2.70;99.90;;;;;;5074163;28;20046;-64
2022/04/04 06:48:55;;;;;;;17.73;9.95;;;2.60;99.90;;;;;;5056933;28;20032;-64
2022/04/04 06:51:21;;;;;;;19.05;9.73;;;2.70;99.90;;;;;;5056899;28;20032;-63
2022/04/04 06:53:50;;;;;;;13.75;9.43;;;2.90;99.90;;;;;;5056373;28;20025;-65
2022/04/04 06:56:15;;;;;;;16.77;10.15;;;3.20;99.90;;;;;;5071949;28;20032;-64
2022/04/04 06:58:41;;;;;;;11.50;8.60;;;3.20;99.90;;;;;;5068455;28;20031;-61
2022/04/04 07:01:07;;;;;;;13.30;9.70;;;3.40;99.90;;;;;;5062963;28;20370;-63
2022/04/04 07:03:35;;;;;;;12.38;9.27;;;3.60;99.90;;;;;;5074284;28;20017;-72
2022/04/04 07:06:01;;;;;;;13.93;8.60;;;3.90;99.90;;;;;;5066953;28;20059;-63
2022/04/04 07:08:28;;;;;;;9.98;8.80;;;4.10;99.90;;;;;;5050104;28;20020;-65
2022/04/04 07:10:54;;;;;;;12.07;8.38;;;4.00;99.90;;;;;;5072975;28;20035;-65
2022/04/04 07:13:20;;;;;;;12.65;8.55;;;4.30;99.80;;;;;;5064716;28;20029;-65
2022/04/04 07:15:45;;;;;;;15.40;8.77;;;4.20;99.10;;;;;;5042877;28;20518;-64
2022/04/04 07:18:12;;;;;;;9.88;8.48;;;4.20;99.30;;;;;;5036340;28;20031;-69
2022/04/04 07:20:38;;;;;;;12.00;8.35;;;4.30;98.90;;;;;;5035847;28;20021;-64
2022/04/04 07:23:05;;;;;;;14.57;8.60;;;4.20;99.30;;;;;;5053992;28;20474;-65
2022/04/04 07:25:31;;;;;;;16.67;9.88;;;4.00;99.70;;;;;;5058804;28;20032;-66
2022/04/04 07:27:57;;;;;;;13.02;9.35;;;4.60;99.90;;;;;;5055939;28;20096;-65
2022/04/04 07:30:23;;;;;;;12.50;9.18;;;4.70;99.90;;;;;;5074231;28;20435;-64
2022/04/04 07:32:51;;;;;;;17.98;9.98;;;4.50;99.10;;;;;;5054140;28;20036;-62
2022/04/04 07:35:18;;;;;;;17.08;9.45;;;4.40;99.10;;;;;;5064073;28;20082;-63
2022/04/04 07:37:46;;;;;;;12.50;9.20;;;4.00;99.70;;;;;;5054068;28;20033;-63
2022/04/04 07:40:14;;;;;;;16.08;9.05;;;4.00;99.80;;;;;;5074395;28;20029;-63
2022/04/04 07:42:42;;;;;;;19.92;11.60;;;4.00;99.60;;;;;;5074454;28;20048;-68
2022/04/04 07:45:10;;;;;;;10.73;8.95;;;4.20;99.10;;;;;;5073155;28;20036;-63
2022/04/04 07:47:37;;;;;;;14.90;9.32;;;4.20;98.60;;;;;;5057186;28;20373;-73
2022/04/04 07:50:05;;;;;;;15.50;9.63;;;4.10;98.60;;;;;;5073847;28;20020;-62
2022/04/04 07:52:30;;;;;;;12.05;8.77;;;4.20;98.70;;;;;;5056932;28;20082;-65
2022/04/04 07:54:56;;;;;;;13.73;8.90;;;4.50;98.30;;;;;;5070618;28;20819;-64
2022/04/04 07:57:22;;;;;;;11.85;8.65;;;4.70;97.80;;;;;;5072950;28;20048;-63
2022/04/04 07:59:50;;;;;;;15.35;9.35;;;4.40;97.90;;;;;;5073453;28;20028;-64
2022/04/04 08:02:16;;;;;;;11.82;8.55;;;4.50;97.80;;;;;;5074259;28;20020;-64
2022/04/04 08:04:42;;;;;;;11.95;8.90;;;4.70;97.70;;;;;;5072953;28;20480;-64
2022/04/04 08:07:08;;;;;;;10.10;7.93;;;4.80;97.30;;;;;;5072953;28;20036;-64
2022/04/04 08:09:33;;;;;;;15.38;8.63;;;4.90;97.20;;;;;;5072707;28;20494;-63
2022/04/04 08:11:59;;;;;;;14.88;7.88;;;5.40;96.80;;;;;;5072253;28;20519;-66
2022/04/04 08:14:25;;;;;;;12.80;9.10;;;5.50;96.20;;;;;;5071885;28;20033;-63
2022/04/04 08:16:51;;;;;;;15.10;8.43;;;5.60;95.30;;;;;;5057628;28;20094;-68
2022/04/04 08:19:17;;;;;;;14.13;9.00;;;5.80;94.80;;;;;;5065396;28;20052;-63
2022/04/04 08:21:44;;;;;;;11.18;8.55;;;5.80;94.80;;;;;;5054370;28;20039;-64
2022/04/04 08:24:13;;;;;;;13.45;9.15;;;6.40;94.50;;;;;;5054731;28;20036;-64
2022/04/04 08:26:39;;;;;;;12.15;8.95;;;6.60;93.40;;;;;;5072815;28;20033;-72
2022/04/04 08:29:07;;;;;;;12.45;8.38;;;6.60;93.10;;;;;;5073528;28;20432;-65
2022/04/04 08:31:34;;;;;;;13.13;8.27;;;6.70;92.70;;;;;;5073323;28;20020;-64
2022/04/04 08:33:59;;;;;;;15.52;8.90;;;6.60;92.60;;;;;;5072851;28;20028;-65
2022/04/04 08:36:25;;;;;;;10.82;7.65;;;6.60;93.40;;;;;;5072417;28;20028;-64
2022/04/04 08:38:51;;;;;;;11.68;8.15;;;7.00;92.50;;;;;;5054888;28;20025;-64
2022/04/04 08:41:17;;;;;;;10.07;7.93;;;7.10;92.50;;;;;;5056152;28;20028;-65
2022/04/04 08:43:49;;;;;;;12.50;8.68;;;7.00;92.10;;;;;;5072969;28;20098;-65
2022/04/04 08:46:15;;;;;;;;;;;6.60;93.00;;;;;;5076086;28;20086;-64
2022/04/04 08:48:41;;;;;;;17.98;9.25;;;6.80;93.40;;;;;;5072262;28;20452;-63
2022/04/04 08:51:07;;;;;;;12.63;8.52;;;6.80;93.20;;;;;;5066950;28;20025;-65
2022/04/04 08:53:40;;;;;;;11.52;8.85;;;6.80;92.80;;;;;;5077326;28;20054;-64
2022/04/04 08:56:09;;;;;;;12.68;7.78;;;7.10;92.70;;;;;;5057658;28;20477;-63
2022/04/04 08:58:36;;;;;;;12.95;7.85;;;7.30;92.20;;;;;;5058432;28;20056;-65
2022/04/04 09:01:02;;;;;;;10.85;7.72;;;7.70;91.60;;;;;;5057962;28;20115;-66
2022/04/04 09:03:31;;;;;;;10.82;7.75;;;7.90;91.20;;;;;;5054460;28;20174;-66
2022/04/04 09:06:05;;;;;;;9.93;7.90;;;8.10;91.00;;;;;;5075009;28;20021;-64
2022/04/04 09:08:44;;;;;;;13.93;7.63;;;8.70;90.20;;;;;;5075656;28;20074;-65
2022/04/04 09:11:11;;;;;;;9.60;7.20;;;8.40;89.30;;;;;;5057994;28;20105;-65
2022/04/04 09:13:37;;;;;;;8.63;7.72;;;8.40;90.20;;;;;;5058087;28;20033;-65
2022/04/04 09:16:07;;;;;;;10.38;7.85;;;8.60;90.10;;;;;;5057129;28;20067;-63
2022/04/04 09:18:45;;;;;;;10.38;7.90;;;8.80;89.10;;;;;;5075770;28;20129;-63
2022/04/04 09:21:29;;;;;;;14.23;7.63;;;8.60;88.80;;;;;;5058133;28;20031;-64
2022/04/04 09:23:58;;;;;;;15.60;7.03;;;8.80;88.70;;;;;;5075548;28;20043;-62
2022/04/04 09:26:40;;;;;;;9.10;7.55;;;9.40;87.50;;;;;;5075544;28;20036;-62
2022/04/04 09:29:20;;;;;;;8.63;7.18;;;9.70;86.20;;;;;;5060411;28;20032;-61
2022/04/04 09:32:08;;;;;;;8.15;7.15;;;10.00;85.10;;;;;;5077292;28;20040;-64
2022/04/04 09:35:00;;;;;;;6.75;5.68;;;10.00;83.70;;;;;;5075490;28;20480;-64
2022/04/04 09:37:28;;;;;;;8.90;6.85;;;10.30;80.80;;;;;;5076053;28;20059;-64
2022/04/04 09:40:17;;;;;;;8.57;5.68;;;10.00;78.70;;;;;;5075309;28;20520;-64
2022/04/04 09:42:57;;;;;;;8.73;5.57;;;9.20;77.20;;;;;;5040393;28;20061;-73
2022/04/04 09:45:31;;;;;;;7.93;5.28;;;8.60;78.00;;;;;;5057855;28;20033;-64
2022/04/04 09:48:06;;;;;;;5.82;4.97;;;9.00;78.10;;;;;;5074780;28;20024;-64
2022/04/04 09:50:45;;;;;;;15.43;7.32;;;9.60;77.60;;;;;;5057389;28;20405;-64
2022/04/04 09:53:14;;;;;;;7.32;5.35;;;10.00;74.70;;;;;;5057628;28;20028;-65
2022/04/04 09:55:46;;;;;;;12.18;5.18;;;10.00;73.60;;;;;;5057927;28;20040;-65
2022/04/04 09:58:15;;;;;;;6.55;5.35;;;10.40;72.90;;;;;;5075174;28;20108;-65
2022/04/04 10:00:44;;;;;;;15.77;6.25;;;10.80;72.70;;;;;;5058285;28;20028;-63
2022/04/04 10:03:14;;;;;;;10.27;5.05;;;11.70;70.40;;;;;;5057079;28;20024;-62
2022/04/04 10:05:46;;;;;;;6.57;4.93;;;11.20;69.30;;;;;;5057331;28;20120;-64
2022/04/04 10:08:17;;;;;;;12.88;5.25;;;11.00;68.90;;;;;;5057329;28;20085;-64
2022/04/04 10:10:44;;;;;;;6.70;4.88;;;10.50;69.20;;;;;;5075335;28;20025;-64
2022/04/04 10:13:14;;;;;;;6.57;4.93;;;10.00;70.00;;;;;;5057609;28;20048;-64
2022/04/04 10:15:40;;;;;;;6.22;4.30;;;10.30;70.20;;;;;;5076013;28;20362;-65
2022/04/04 10:18:06;;;;;;;9.75;5.68;;;10.50;69.30;;;;;;5075689;28;20033;-65
2022/04/04 10:20:33;;;;;;;11.30;5.40;;;10.70;69.30;;;;;;5058154;28;20074;-65
2022/04/04 10:22:59;;;;;;;10.68;4.53;;;10.20;69.00;;;;;;5057709;28;20040;-63
2022/04/04 10:25:31;;;;;;;9.40;4.90;;;10.00;69.60;;;;;;5075711;28;20032;-63
2022/04/04 10:27:59;;;;;;;15.55;4.57;;;10.20;69.60;;;;;;5056749;28;20040;-68
2022/04/04 10:30:42;;;;;;;5.10;4.60;;;10.00;70.20;;;;;;5057589;28;20417;-64
2022/04/04 10:33:24;;;;;;;7.63;5.63;;;10.00;69.40;;;;;;5074642;28;20020;-65
2022/04/04 10:36:07;;;;;;;6.18;5.28;;;10.30;69.30;;;;;;5073490;28;20032;-64
2022/04/04 10:38:37;;;;;;;6.97;5.00;;;10.40;68.40;;;;;;5067567;28;20359;-63
2022/04/04 10:41:08;;;;;;;4.75;4.30;;;10.10;69.00;;;;;;5056264;28;20093;-63
2022/04/04 10:43:40;;;;;;;6.45;4.13;;;10.00;69.40;;;;;;5072005;28;20064;-63
2022/04/04 10:46:13;;;;;;;8.50;5.22;;;10.00;69.00;;;;;;5054299;28;20345;-63
2022/04/04 10:48:47;;;;;;;10.60;4.47;;;10.00;69.00;;;;;;5074108;28;20024;-66
2022/04/04 10:51:26;;;;;;;9.27;4.20;;;10.30;68.90;;;;;;5049824;28;20470;-64
2022/04/04 10:53:54;;;;;;;5.47;4.32;;;10.50;68.10;;;;;;5054227;28;20029;-71
2022/04/04 10:56:22;;;;;;;9.80;4.53;;;10.30;67.00;;;;;;5054971;28;20041;-64
2022/04/04 10:58:53;;;;;;;7.18;4.90;;;10.00;67.40;;;;;;5067250;28;20108;-66
2022/04/04 11:01:21;;;;;;;5.90;4.60;;;9.90;68.10;;;;;;5044772;28;20075;-65
2022/04/04 11:03:53;;;;;;;7.95;4.57;;;9.90;67.20;;;;;;5061804;28;20504;-65
2022/04/04 11:09:22;;;;;;;4.55;4.15;;;9.90;67.30;;;;;;5073538;28;20401;-66
2022/04/04 11:12:00;;;;;;;4.53;4.13;;;10.10;66.80;;;;;;5073209;28;20020;-73
2022/04/04 11:14:33;;;;;;;9.07;3.85;;;10.30;66.40;;;;;;5073313;28;20493;-65
2022/04/04 11:20:10;;;;;;;6.03;3.83;;;10.20;66.40;;;;;;5070260;28;20089;-64
2022/04/04 11:22:43;;;;;;;5.90;4.68;;;10.30;66.00;;;;;;5055890;28;20024;-65
2022/04/04 11:25:20;;;;;;;6.88;4.50;;;10.20;66.20;;;;;;5055088;28;20757;-69
2022/04/04 11:27:48;;;;;;;5.22;4.28;;;10.00;66.30;;;;;;5071284;28;20035;-64
2022/04/04 11:30:20;;;;;;;6.47;4.15;;;10.00;67.50;;;;;;5068784;28;20021;-66
2022/04/04 11:32:49;;;;;;;6.35;3.97;;;10.20;67.10;;;;;;5048491;28;20078;-63
2022/04/04 11:35:23;;;;;;;9.63;4.72;;;10.20;66.80;;;;;;5058543;28;20090;-65
2022/04/04 11:37:51;;;;;;;7.03;4.70;;;10.40;66.50;;;;;;5029078;28;20033;-69
2022/04/04 11:40:19;;;;;;;6.78;4.93;;;10.50;66.50;;;;;;5050059;28;20020;-71
2022/04/04 11:42:51;;;;;;;9.65;5.07;;;10.30;66.80;;;;;;5070266;28;20044;-66
2022/04/04 11:45:20;;;;;;;;;;;10.50;66.90;;;;;;5055666;28;20025;-64
2022/04/04 11:47:56;;;;;;;4.60;3.83;;;10.30;65.50;;;;;;5072673;28;19921;-64
2022/04/04 11:50:25;;;;;;;7.63;4.35;;;10.50;65.20;;;;;;5055644;28;20107;-64
2022/04/04 11:53:02;;;;;;;5.97;4.18;;;10.40;65.40;;;;;;5072364;28;20036;-72
2022/04/04 11:55:29;;;;;;;7.60;5.13;;;10.40;65.40;;;;;;5072802;28;20033;-64
2022/04/04 11:57:58;;;;;;;8.05;4.40;;;10.50;64.80;;;;;;5052184;28;20029;-63
2022/04/04 12:00:26;;;;;;;5.55;4.53;;;10.50;65.10;;;;;;5060737;28;20021;-65
2022/04/04 12:02:52;;;;;;;7.43;3.92;;;10.40;64.50;;;;;;5069992;28;20025;-72
2022/04/04 12:05:22;;;;;;;5.72;3.92;;;10.00;64.80;;;;;;5073503;28;20125;-64
2022/04/04 12:07:49;;;;;;;5.40;3.75;;;10.00;65.40;;;;;;5069613;28;20373;-66
2022/04/04 12:10:29;;;;;;;5.82;4.47;;;10.00;65.50;;;;;;5073985;28;20036;-68
2022/04/04 12:13:18;;;;;;;9.88;4.38;;;10.00;65.20;;;;;;5056415;28;20052;-65
2022/04/04 12:15:45;;;;;;;5.45;4.32;;;10.00;65.30;;;;;;5056445;28;20028;-65
2022/04/04 12:18:29;;;;;;;4.85;4.38;;;9.90;65.40;;;;;;5070305;28;20029;-65
2022/04/04 12:21:02;;;;;;;7.15;4.20;;;10.00;65.30;;;;;;5062868;28;20565;-66
2022/04/04 12:26:16;;;;;;;3.85;3.55;;;10.20;64.50;;;;;;5073007;28;20059;-65
2022/04/04 12:28:53;;;;;;;6.40;4.05;;;9.90;64.40;;;;;;5073426;28;20051;-64
2022/04/04 12:31:21;;;;;;;8.27;3.58;;;10.00;65.30;;;;;;5055052;28;20025;-64
2022/04/04 12:34:07;;;;;;;31.77;5.78;;;10.20;65.10;;;;;;5072433;28;20075;-65
2022/04/04 12:36:38;;;;;;;6.55;4.20;;;10.20;64.80;;;;;;5072709;28;20025;-65
2022/04/04 12:39:22;;;;;;;5.68;3.42;;;10.20;64.90;;;;;;5069525;28;20025;-65
2022/04/04 12:41:56;;;;;;;4.63;3.50;;;10.10;64.40;;;;;;5072381;28;20440;-64
2022/04/04 12:44:30;;;;;;;6.13;3.80;;;10.10;64.40;;;;;;5072850;28;20040;-64
2022/04/04 12:47:07;;;;;;;5.93;4.03;;;10.00;64.60;;;;;;5071937;28;20140;-67
2022/04/04 12:49:33;;;;;;;8.05;4.55;;;10.00;64.40;;;;;;5072623;28;20046;-67
2022/04/04 12:52:10;;;;;;;4.53;4.05;;;10.20;64.60;;;;;;5071881;28;20107;-63
2022/04/04 12:54:38;;;;;;;8.50;4.13;;;9.90;64.20;;;;;;5072943;28;20037;-64
2022/04/04 12:57:07;;;;;;;11.40;4.15;;;9.80;64.70;;;;;;5054603;28;20033;-65
2022/04/04 12:59:51;;;;;;;3.70;3.05;;;9.60;64.00;;;;;;5073841;28;20024;-66
2022/04/04 13:02:16;;;;;;;7.78;4.65;;;9.50;64.40;;;;;;5074249;28;20021;-69
2022/04/04 13:04:42;;;;;;;7.53;3.30;;;9.60;64.40;;;;;;5074373;28;20080;-65
2022/04/04 13:07:24;;;;;;;6.50;3.60;;;9.70;64.20;;;;;;5072628;28;20056;-63